Kezdőlap
METAR-TAF:

METAR-TAF

Repülőterek :

Szatmárnémeti, Románia

földrajzi szélesség: 47-48N, földrajzi hosszúság: 022-53E, magasság: 123 m

Jelenlegi meteorológiai megfigyelések

A jelentés 18 perccel ezelõtt készült, 18:30 UTC
Északnyugati szél 4 kt
Hőmérséklet 13°C
Páratartalom 88%
Légköri nyomás 1020 hPa
Látótávolság: 6000 m

METAR: LRSM 201830Z AUTO 31004KT 6000 OVC075/// 13/11 Q1020

Idő: 21:48 (18:48 UTC)

Előrejelzés

A jelentés 4 órával és 48 perccel ezelõtt készült, 14:00 UTC
Az előrejelzés 20-én 15 óra UTC és 20-én 24 óra UTC között érvényes
Különbözõ irányokból fújó szél 4 kt
Látótávolság: 5000 m
Párásság
20-én 21 óra UTC és 20-én 24 óra UTC között ideiglenes
Látótávolság: 1500 m
Szakadozott felhőzet 500 lábon
Párásság

TAF: LRSM 201400Z 2015/2024 VRB04KT 5000 BR NSC TEMPO 2021/2024 1500 BR BKN005

Meteorológiai megfigyelések és előrejelzések több, mint 4000 repülőtéren (METAR és TAF jelentéseket).

A térképen piros és sárga pontok jelzik az elérhető meteorológiai állomásokat.

Mozgassa az egeret a pont fölött, hogy megjelenjen az állomás neve.

Azután kattintson az időjárási megfigyelések és előrejelzések megtekintéséhez.

A térkép megváltoztatása: kattintson a fekete keresztel jelölt zöld gombra ráközelítéshez, a vonallal jelölt zöld gombra távolításhoz, vagy a zöld nyilakra a szomszédos térképek eléréséhez.


METAR-TAF: